Huff, Kentucky
Current Conditions -  °F | °C
As of 12:53 PM on Monday 22 Dec 2014 (Local Time) from KBWG Reporting Station
Overcast Overcast  
Wind Chill: 55°   Ceiling: 2300
Heat Index: 55°   Visibility: 10mi
Dew Point: 44°   Wind: 10mph
Humidity: 67%   Direction: 160°SSE
Pressure: 29.8"   Gusts: NA
Location:  37.2379°N, 86.3446°W
Report Text: KBWG 221853Z AUTO 16009KT 10SM OVC023 13/07 A2980 RMK AO2 SLP092 T01280067
Loading
Personal Weather Stations






























Interactive Weather Map New forecast layout! Learn more

10-Day Weather Forecast

Advertisements
Track Severe Weather on mobile